Time;durP1;ratioP1;P1;durP2;ratioP2;P2;SDS_P1;SDS_P2;PMS_P1;PMS_P2;Temp;Humidity;BMP_temperature;BMP_pressure;BME280_temperature;BME280_humidity;BME280_pressure;Samples;Min_cycle;Max_cycle;Signal;HPM_P1;HPM_P2
2022/01/10 00:00:06;;;;;;;12.05;2.65;;;7.60;92.40;;;;;;5018835;28;20438;-69
2022/01/10 00:02:39;;;;;;;12.95;2.42;;;7.70;92.30;;;;;;5047928;28;20032;-70
2022/01/10 00:05:05;;;;;;;17.42;2.60;;;7.70;92.30;;;;;;5028421;28;20507;-69
2022/01/10 00:07:31;;;;;;;23.08;3.50;;;7.70;92.20;;;;;;5055224;28;20044;-70
2022/01/10 00:09:56;;;;;;;8.98;2.13;;;7.70;92.20;;;;;;5040715;28;20025;-70
2022/01/10 00:12:22;;;;;;;12.35;2.80;;;7.70;92.20;;;;;;5043019;28;20045;-70
2022/01/10 00:14:48;;;;;;;15.93;2.63;;;7.70;92.20;;;;;;5043446;28;20072;-70
2022/01/10 00:17:13;;;;;;;1.17;1.02;;;7.70;92.10;;;;;;5037250;28;20037;-70
2022/01/10 00:19:39;;;;;;;9.30;2.22;;;7.70;92.10;;;;;;5044587;28;20030;-70
2022/01/10 00:22:07;;;;;;;11.80;2.17;;;7.70;92.10;;;;;;5014888;28;20069;-70
2022/01/10 00:24:33;;;;;;;11.55;2.72;;;7.60;92.10;;;;;;5027338;28;20386;-70
2022/01/10 00:26:59;;;;;;;17.42;2.47;;;7.60;92.20;;;;;;5015173;28;20038;-70
2022/01/10 00:29:25;;;;;;;13.60;2.47;;;7.50;92.20;;;;;;5025782;28;20032;-70
2022/01/10 00:31:51;;;;;;;14.15;2.88;;;7.50;92.20;;;;;;5033454;28;20460;-70
2022/01/10 00:34:16;;;;;;;12.18;2.92;;;7.50;92.20;;;;;;5039302;28;20040;-70
2022/01/10 00:36:42;;;;;;;11.98;2.33;;;7.50;92.20;;;;;;5028553;28;20049;-70
2022/01/10 00:39:08;;;;;;;9.57;2.50;;;7.50;92.10;;;;;;5053497;28;20037;-70
2022/01/10 00:41:34;;;;;;;17.35;2.78;;;7.50;92.10;;;;;;5038362;28;20424;-70
2022/01/10 00:44:01;;;;;;;9.45;2.67;;;7.50;92.20;;;;;;5016496;28;20501;-70
2022/01/10 00:46:27;;;;;;;10.20;1.73;;;7.40;92.20;;;;;;5045861;28;20029;-70
2022/01/10 00:48:56;;;;;;;13.52;3.88;;;7.40;92.20;;;;;;5045052;28;20382;-70
2022/01/10 00:51:21;;;;;;;7.47;2.60;;;7.40;92.20;;;;;;5023329;28;20033;-70
2022/01/10 00:53:50;;;;;;;14.60;2.63;;;7.30;92.50;;;;;;5035313;28;20044;-70
2022/01/10 00:56:16;;;;;;;12.63;2.42;;;7.30;92.20;;;;;;5033708;28;20033;-70
2022/01/10 00:58:42;;;;;;;18.33;3.40;;;7.30;92.30;;;;;;5013469;28;20030;-70
2022/01/10 01:01:08;;;;;;;12.75;3.10;;;7.20;92.30;;;;;;5024918;28;20032;-70
2022/01/10 01:03:34;;;;;;;13.27;2.78;;;7.20;92.30;;;;;;5049659;28;20119;-70
2022/01/10 01:06:00;;;;;;;10.52;2.67;;;7.20;92.30;;;;;;5040702;28;20029;-70
2022/01/10 01:08:28;;;;;;;3.50;1.92;;;7.10;92.30;;;;;;5050678;28;20369;-70
2022/01/10 01:11:23;;;;;;;8.85;3.28;;;7.10;92.40;;;;;;5029790;28;20046;-70
2022/01/10 01:16:14;;;;;;;16.15;3.80;;;7.10;92.40;;;;;;5036658;28;20036;-70
2022/01/10 01:24:06;;;;;;;19.33;3.03;;;7.10;92.40;;;;;;5039943;28;20059;-70
2022/01/10 01:26:36;;;;;;;;;;;7.00;92.40;;;;;;5030967;28;20091;-71
2022/01/10 01:29:04;;;;;;;3.50;1.58;;;7.00;92.40;;;;;;5026828;28;20383;-70
2022/01/10 01:31:30;;;;;;;13.02;2.35;;;7.00;92.40;;;;;;5030187;28;20018;-70
2022/01/10 01:33:56;;;;;;;7.88;2.03;;;6.90;92.70;;;;;;5034007;28;20036;-70
2022/01/10 01:36:24;;;;;;;11.98;2.42;;;6.90;92.70;;;;;;5042368;28;20500;-70
2022/01/10 01:38:52;;;;;;;3.25;1.48;;;6.80;92.50;;;;;;5013526;28;20117;-70
2022/01/10 01:43:44;;;;;;;8.10;1.95;;;6.80;92.60;;;;;;5039246;28;20099;-70
2022/01/10 01:46:10;;;;;;;10.10;1.90;;;6.80;92.60;;;;;;5039408;28;20063;-69
2022/01/10 01:48:36;;;;;;;15.93;1.95;;;6.80;92.60;;;;;;5037773;28;20045;-69
2022/01/10 01:51:03;;;;;;;5.63;1.48;;;6.70;92.60;;;;;;5012260;28;20064;-70
2022/01/10 01:53:30;;;;;;;10.55;2.97;;;6.70;92.60;;;;;;5040678;28;20064;-70
2022/01/10 01:56:00;;;;;;;9.52;2.35;;;6.70;92.60;;;;;;5050896;28;20049;-70
2022/01/10 01:58:26;;;;;;;15.80;2.50;;;6.70;92.60;;;;;;5021765;28;20030;-70
2022/01/10 02:00:54;;;;;;;3.83;1.27;;;6.60;92.60;;;;;;5029442;28;20017;-70
2022/01/10 02:03:19;;;;;;;5.57;1.95;;;6.70;92.60;;;;;;5022561;28;20596;-70
2022/01/10 02:05:53;;;;;;;5.28;1.67;;;6.60;92.60;;;;;;5042129;28;20051;-70
2022/01/10 02:08:20;;;;;;;10.27;2.80;;;6.60;92.60;;;;;;5024932;28;20032;-70
2022/01/10 02:10:45;;;;;;;14.27;2.58;;;6.60;92.60;;;;;;5052039;28;20021;-70
2022/01/10 02:13:11;;;;;;;5.68;2.08;;;6.50;92.60;;;;;;5043506;28;20045;-70
2022/01/10 02:18:38;;;;;;;8.02;2.13;;;6.60;92.60;;;;;;5017694;28;20518;-70
2022/01/10 02:21:05;;;;;;;7.38;1.67;;;6.50;92.60;;;;;;5045677;28;20041;-70
2022/01/10 02:23:35;;;;;;;9.07;2.30;;;6.50;92.60;;;;;;5041339;28;20025;-70
2022/01/10 02:26:06;;;;;;;7.65;2.05;;;6.50;92.60;;;;;;5051075;28;20032;-70
2022/01/10 02:28:34;;;;;;;2.97;1.55;;;6.40;92.60;;;;;;5051319;28;20035;-70
2022/01/10 02:31:00;;;;;;;5.80;1.35;;;6.40;92.60;;;;;;5023144;28;20108;-70
2022/01/10 02:33:28;;;;;;;4.53;1.98;;;6.40;92.60;;;;;;5024266;28;20038;-70
2022/01/10 02:38:33;;;;;;;9.80;1.60;;;6.40;92.60;;;;;;5031209;28;20218;-70
2022/01/10 02:41:00;;;;;;;7.75;2.25;;;6.40;92.60;;;;;;5044477;28;20549;-70
2022/01/10 02:43:28;;;;;;;9.20;2.47;;;6.40;92.60;;;;;;5029217;28;20125;-70
2022/01/10 02:45:57;;;;;;;11.90;2.20;;;6.40;92.60;;;;;;5040937;28;20026;-70
2022/01/10 02:48:23;;;;;;;11.98;2.35;;;6.40;92.70;;;;;;5039244;28;20029;-69
2022/01/10 02:50:49;;;;;;;11.68;2.38;;;6.30;92.60;;;;;;5050326;28;20148;-70
2022/01/10 02:53:15;;;;;;;6.28;1.55;;;6.30;92.70;;;;;;5047785;28;20045;-70
2022/01/10 02:55:41;;;;;;;5.95;1.98;;;6.30;92.60;;;;;;5042695;28;20147;-70
2022/01/10 02:58:09;;;;;;;5.47;1.50;;;6.30;92.60;;;;;;5054132;28;20031;-70
2022/01/10 03:00:34;;;;;;;9.10;2.10;;;6.30;92.60;;;;;;5028443;28;20388;-70
2022/01/10 03:03:06;;;;;;;6.07;2.38;;;6.30;92.60;;;;;;5054926;28;20404;-70
2022/01/10 03:05:33;;;;;;;7.10;2.47;;;6.30;92.60;;;;;;5029569;28;20035;-70
2022/01/10 03:08:01;;;;;;;10.52;2.70;;;6.30;92.60;;;;;;5054544;28;20025;-70
2022/01/10 03:10:29;;;;;;;13.43;2.30;;;6.30;92.70;;;;;;5054750;28;20115;-70
2022/01/10 03:12:55;;;;;;;12.38;2.50;;;6.30;92.70;;;;;;5049274;28;20045;-70
2022/01/10 03:15:21;;;;;;;11.40;2.60;;;6.30;92.60;;;;;;5034739;28;20480;-70
2022/01/10 03:17:48;;;;;;;4.18;2.10;;;6.30;92.60;;;;;;5050415;28;20088;-70
2022/01/10 03:20:14;;;;;;;6.60;2.05;;;6.30;92.60;;;;;;5034014;28;20472;-70
2022/01/10 03:22:43;;;;;;;10.75;3.17;;;6.30;92.50;;;;;;5038988;28;20029;-70
2022/01/10 03:25:09;;;;;;;7.13;2.03;;;6.20;92.50;;;;;;5033255;28;20068;-70
2022/01/10 03:27:37;;;;;;;11.23;2.97;;;6.30;92.50;;;;;;5027296;28;20025;-70
2022/01/10 03:30:04;;;;;;;12.80;2.60;;;6.20;92.50;;;;;;5038356;28;20361;-70
2022/01/10 03:32:30;;;;;;;10.35;3.15;;;6.20;92.50;;;;;;5025332;28;20043;-70
2022/01/10 03:35:05;;;;;;;3.30;1.77;;;6.20;92.50;;;;;;5052729;28;20025;-70
2022/01/10 03:37:31;;;;;;;10.10;2.33;;;6.20;92.50;;;;;;5036764;28;20130;-70
2022/01/10 03:40:01;;;;;;;9.75;3.10;;;6.10;92.50;;;;;;5027731;28;20477;-71
2022/01/10 03:42:26;;;;;;;9.70;2.90;;;6.10;92.50;;;;;;5017781;28;20120;-70
2022/01/10 03:44:52;;;;;;;4.68;1.95;;;6.10;92.50;;;;;;5033916;28;20105;-70
2022/01/10 03:47:20;;;;;;;8.30;1.80;;;6.00;92.50;;;;;;5019788;28;20034;-71
2022/01/10 03:49:49;;;;;;;9.27;2.22;;;6.10;92.50;;;;;;5034144;28;20049;-70
2022/01/10 03:52:15;;;;;;;4.72;2.28;;;6.00;92.50;;;;;;5018502;28;20051;-70
2022/01/10 03:54:41;;;;;;;3.55;1.70;;;6.00;92.50;;;;;;5045095;28;20021;-70
2022/01/10 03:57:07;;;;;;;6.90;1.30;;;6.00;92.50;;;;;;5054917;28;20464;-70
2022/01/10 03:59:33;;;;;;;2.17;1.25;;;6.00;92.50;;;;;;5032274;28;20450;-70
2022/01/10 04:02:06;;;;;;;11.70;2.58;;;6.00;92.50;;;;;;5029602;28;20040;-70
2022/01/10 04:04:35;;;;;;;4.75;2.13;;;5.90;92.50;;;;;;5053976;28;20059;-70
2022/01/10 04:07:02;;;;;;;5.32;1.98;;;5.90;92.50;;;;;;5053456;28;20025;-70
2022/01/10 04:09:27;;;;;;;7.90;2.58;;;5.80;92.50;;;;;;5054253;28;20366;-69
2022/01/10 04:11:54;;;;;;;2.42;1.50;;;5.80;92.50;;;;;;5040900;28;20061;-70
2022/01/10 04:14:20;;;;;;;6.95;2.13;;;5.80;92.50;;;;;;5054916;28;20033;-71
2022/01/10 04:16:46;;;;;;;1.40;0.75;;;5.90;92.60;;;;;;5027077;28;20439;-70
2022/01/10 04:19:12;;;;;;;21.55;2.70;;;5.80;92.50;;;;;;5054839;28;20388;-70
2022/01/10 04:21:38;;;;;;;9.23;2.63;;;5.80;92.60;;;;;;5024113;28;20075;-70
2022/01/10 04:24:04;;;;;;;3.70;1.60;;;5.80;92.50;;;;;;5033242;28;20033;-70
2022/01/10 04:26:30;;;;;;;1.00;0.93;;;5.80;92.50;;;;;;5027618;28;20061;-70
2022/01/10 04:28:56;;;;;;;13.95;2.60;;;5.80;92.50;;;;;;5013653;28;20077;-70
2022/01/10 04:31:22;;;;;;;4.60;1.90;;;5.80;92.50;;;;;;5021817;28;20067;-70
2022/01/10 04:33:47;;;;;;;8.95;2.53;;;5.70;92.50;;;;;;5023273;28;20037;-70
2022/01/10 04:36:13;;;;;;;2.15;1.08;;;5.80;92.60;;;;;;5039060;28;20024;-70
2022/01/10 04:38:43;;;;;;;7.95;1.10;;;5.70;92.60;;;;;;5052517;28;20041;-70
2022/01/10 04:41:11;;;;;;;33.85;3.35;;;5.70;92.60;;;;;;5026767;28;20062;-70
2022/01/10 04:43:39;;;;;;;0.47;0.47;;;5.70;92.60;;;;;;5052463;28;20116;-70
2022/01/10 04:46:06;;;;;;;3.13;1.95;;;5.60;92.60;;;;;;5052685;28;20036;-70
2022/01/10 04:48:32;;;;;;;3.72;1.85;;;5.70;92.60;;;;;;5052668;28;20044;-70
2022/01/10 04:53:33;;;;;;;15.73;3.67;;;5.60;92.60;;;;;;5051777;28;20037;-70
2022/01/10 04:55:59;;;;;;;15.00;3.20;;;5.70;92.60;;;;;;5036945;28;20380;-70
2022/01/10 04:58:25;;;;;;;11.32;3.38;;;5.70;92.60;;;;;;5043054;28;20108;-70
2022/01/10 05:00:53;;;;;;;10.35;3.42;;;5.60;92.60;;;;;;5037074;28;20474;-70
2022/01/10 05:03:20;;;;;;;7.68;3.17;;;5.70;92.60;;;;;;5017716;28;20033;-70
2022/01/10 05:05:53;;;;;;;5.30;2.47;;;5.60;92.60;;;;;;5051030;28;20159;-70
2022/01/10 05:08:23;;;;;;;24.23;3.03;;;5.70;92.60;;;;;;5018502;28;20052;-70
2022/01/10 05:10:54;;;;;;;15.25;3.60;;;5.60;92.50;;;;;;5041133;28;20026;-70
2022/01/10 05:13:22;;;;;;;12.48;2.58;;;5.60;92.50;;;;;;5024303;28;20040;-70
2022/01/10 05:15:50;;;;;;;2.08;1.67;;;5.60;92.50;;;;;;5051400;28;20090;-70
2022/01/10 05:18:17;;;;;;;9.45;2.42;;;5.60;92.50;;;;;;5025960;28;20036;-70
2022/01/10 05:20:43;;;;;;;10.63;1.95;;;5.60;92.50;;;;;;5050466;28;20021;-70
2022/01/10 05:23:08;;;;;;;6.80;2.05;;;5.60;92.50;;;;;;5022748;28;20088;-70
2022/01/10 05:25:39;;;;;;;10.80;3.10;;;5.60;92.50;;;;;;5012435;28;20058;-70
2022/01/10 05:28:07;;;;;;;3.20;2.63;;;5.60;92.50;;;;;;5012362;28;20184;-70
2022/01/10 05:30:33;;;;;;;9.73;3.55;;;5.60;92.50;;;;;;5016929;28;20030;-70
2022/01/10 05:33:02;;;;;;;9.25;4.28;;;5.50;92.50;;;;;;5035506;28;20530;-70
2022/01/10 05:35:34;;;;;;;23.83;3.88;;;5.50;92.50;;;;;;5040882;28;20082;-70
2022/01/10 05:38:00;;;;;;;8.43;2.80;;;5.60;92.50;;;;;;5046330;28;20034;-70
2022/01/10 05:40:26;;;;;;;11.10;4.22;;;5.50;92.50;;;;;;5043416;28;20038;-70
2022/01/10 05:42:52;;;;;;;17.55;4.40;;;5.50;92.50;;;;;;5015502;28;20030;-70
2022/01/10 05:45:20;;;;;;;7.72;3.35;;;5.50;92.50;;;;;;5037629;28;20427;-70
2022/01/10 05:47:46;;;;;;;17.90;4.40;;;5.50;92.50;;;;;;5023544;28;20119;-70
2022/01/10 05:50:19;;;;;;;16.60;4.13;;;5.50;92.50;;;;;;5037342;28;20053;-70
2022/01/10 05:52:46;;;;;;;11.40;2.83;;;5.50;92.50;;;;;;5041547;28;20058;-70
2022/01/10 05:55:13;;;;;;;12.57;3.45;;;5.50;92.50;;;;;;5012452;28;20577;-70
2022/01/10 05:57:43;;;;;;;5.85;2.42;;;5.50;92.50;;;;;;5044149;28;20057;-70
2022/01/10 06:00:09;;;;;;;3.40;1.13;;;5.50;92.40;;;;;;5029626;28;20068;-70
2022/01/10 06:02:41;;;;;;;9.10;2.90;;;5.50;92.50;;;;;;5012189;28;20104;-70
2022/01/10 06:05:09;;;;;;;7.40;3.00;;;5.50;92.50;;;;;;5028054;28;20030;-71
2022/01/10 06:07:45;;;;;;;10.88;3.47;;;5.40;92.40;;;;;;5028101;28;20044;-70
2022/01/10 06:10:11;;;;;;;13.63;3.15;;;5.40;92.70;;;;;;5028212;28;20507;-70
2022/01/10 06:12:38;;;;;;;5.68;3.35;;;5.40;92.50;;;;;;5017886;28;20037;-70
2022/01/10 06:15:07;;;;;;;22.42;5.30;;;5.40;92.50;;;;;;5030068;28;20166;-70
2022/01/10 06:17:41;;;;;;;9.40;3.72;;;5.40;92.50;;;;;;5028775;28;20484;-69
2022/01/10 06:20:07;;;;;;;10.63;2.83;;;5.40;92.50;;;;;;5020707;28;20482;-69
2022/01/10 06:22:33;;;;;;;7.15;3.30;;;5.40;92.50;;;;;;5041351;28;20025;-68
2022/01/10 06:25:00;;;;;;;12.80;4.47;;;5.40;92.50;;;;;;5051214;28;20079;-69
2022/01/10 06:27:27;;;;;;;5.63;2.80;;;5.40;92.50;;;;;;5024576;28;20060;-68
2022/01/10 06:29:53;;;;;;;3.20;1.70;;;5.30;92.50;;;;;;5013015;28;20046;-69
2022/01/10 06:32:19;;;;;;;1.48;1.23;;;5.40;92.50;;;;;;5028150;28;20042;-68
2022/01/10 06:34:45;;;;;;;4.68;2.33;;;5.30;92.50;;;;;;5011254;28;20029;-69
2022/01/10 06:37:11;;;;;;;12.40;4.45;;;5.30;92.50;;;;;;5012779;28;20468;-69
2022/01/10 06:39:42;;;;;;;10.30;3.17;;;5.30;92.50;;;;;;5011049;28;20022;-68
2022/01/10 06:42:07;;;;;;;2.28;1.73;;;5.30;92.50;;;;;;5028780;28;20074;-67
2022/01/10 06:44:33;;;;;;;11.73;3.83;;;5.20;92.50;;;;;;5019382;28;20030;-69
2022/01/10 06:46:59;;;;;;;14.07;3.83;;;5.20;92.50;;;;;;5011357;28;20037;-68
2022/01/10 06:49:25;;;;;;;5.78;3.17;;;5.30;92.60;;;;;;5016643;28;20050;-69
2022/01/10 06:51:54;;;;;;;6.05;2.38;;;5.20;92.50;;;;;;5028558;28;20037;-68
2022/01/10 06:54:20;;;;;;;20.98;5.15;;;5.20;92.50;;;;;;5026526;28;20040;-69
2022/01/10 06:56:46;;;;;;;16.98;4.85;;;5.20;92.60;;;;;;5026514;28;20026;-68
2022/01/10 06:59:12;;;;;;;21.88;5.38;;;5.20;92.60;;;;;;5025644;28;20087;-68
2022/01/10 07:01:46;;;;;;;1.45;1.15;;;5.20;92.60;;;;;;5025065;28;20053;-68
2022/01/10 07:04:12;;;;;;;7.03;3.22;;;5.20;92.60;;;;;;5009837;28;20121;-69
2022/01/10 07:06:41;;;;;;;3.08;2.08;;;5.20;92.50;;;;;;5014780;28;20026;-69
2022/01/10 07:09:11;;;;;;;13.82;5.30;;;5.20;92.50;;;;;;5020026;28;20030;-68
2022/01/10 07:11:51;;;;;;;11.25;3.97;;;5.20;92.50;;;;;;5034264;28;20029;-69
2022/01/10 07:14:18;;;;;;;7.35;3.42;;;5.20;92.50;;;;;;5018415;28;20033;-69
2022/01/10 07:16:48;;;;;;;16.10;5.55;;;5.20;92.50;;;;;;5013495;28;20485;-70
2022/01/10 07:19:14;;;;;;;12.05;4.75;;;5.20;92.50;;;;;;5027295;28;20065;-71
2022/01/10 07:21:40;;;;;;;13.73;5.65;;;5.20;92.50;;;;;;5027694;28;20056;-69
2022/01/10 07:24:09;;;;;;;15.43;5.68;;;5.20;92.50;;;;;;5028543;28;20065;-69
2022/01/10 07:26:35;;;;;;;10.70;5.32;;;5.20;92.80;;;;;;5029508;28;20025;-69
2022/01/10 07:29:02;;;;;;;22.73;5.95;;;5.20;92.50;;;;;;5027784;28;20485;-69
2022/01/10 07:31:29;;;;;;;13.63;5.65;;;5.20;92.50;;;;;;5033472;28;20026;-69
2022/01/10 07:33:55;;;;;;;22.35;6.32;;;5.20;92.50;;;;;;5027188;28;20068;-69
2022/01/10 07:36:21;;;;;;;17.23;6.20;;;5.30;92.50;;;;;;5021944;28;20087;-68
2022/01/10 07:38:47;;;;;;;16.10;5.35;;;5.30;92.50;;;;;;5014639;28;20148;-69
2022/01/10 07:41:13;;;;;;;9.05;4.45;;;5.40;92.40;;;;;;5016996;28;20041;-69
2022/01/10 07:43:38;;;;;;;18.95;6.07;;;5.40;92.40;;;;;;5022087;28;20036;-68
2022/01/10 07:46:05;;;;;;;13.57;6.15;;;5.40;92.30;;;;;;5033403;28;20026;-69
2022/01/10 07:48:34;;;;;;;13.63;5.05;;;5.40;92.30;;;;;;5032753;28;20037;-69
2022/01/10 07:51:00;;;;;;;8.18;3.17;;;5.40;92.30;;;;;;5021158;28;20493;-69
2022/01/10 07:53:26;;;;;;;13.90;5.90;;;5.30;92.20;;;;;;5026711;28;20041;-70
2022/01/10 07:55:52;;;;;;;11.60;5.57;;;5.30;92.20;;;;;;5054341;28;20032;-70
2022/01/10 07:58:17;;;;;;;13.77;5.40;;;5.30;92.20;;;;;;5051993;28;20037;-70
2022/01/10 08:00:44;;;;;;;16.77;6.80;;;5.30;92.20;;;;;;5031594;28;20792;-69
2022/01/10 08:03:10;;;;;;;17.52;6.85;;;5.30;92.30;;;;;;5028748;28;20033;-70
2022/01/10 08:05:35;;;;;;;23.17;7.53;;;5.30;92.30;;;;;;5055140;28;20476;-70
2022/01/10 08:08:02;;;;;;;18.27;7.10;;;5.30;92.30;;;;;;5049358;28;20447;-70
2022/01/10 08:10:28;;;;;;;19.42;7.43;;;5.40;92.30;;;;;;5032455;28;20546;-70
2022/01/10 08:12:53;;;;;;;22.33;7.95;;;5.50;92.20;;;;;;5054438;28;20033;-69
2022/01/10 08:15:20;;;;;;;21.88;7.82;;;5.50;92.20;;;;;;5054352;28;20043;-70
2022/01/10 08:17:47;;;;;;;17.98;7.78;;;5.50;92.10;;;;;;5038946;28;20025;-72
2022/01/10 08:20:13;;;;;;;21.20;6.65;;;5.50;92.10;;;;;;5021230;28;20402;-71
2022/01/10 08:22:39;;;;;;;18.05;6.68;;;5.60;92.10;;;;;;5030053;28;20047;-70
2022/01/10 08:25:07;;;;;;;14.95;6.97;;;5.60;92.10;;;;;;5054708;28;20056;-70
2022/01/10 08:27:34;;;;;;;16.13;7.50;;;5.50;92.00;;;;;;5048757;28;20065;-71
2022/01/10 08:30:00;;;;;;;17.38;6.70;;;5.60;91.90;;;;;;5027638;28;20108;-71
2022/01/10 08:32:25;;;;;;;16.70;7.07;;;5.60;91.90;;;;;;5014246;28;20034;-71
2022/01/10 08:34:51;;;;;;;13.20;6.35;;;5.50;91.90;;;;;;5018163;28;20029;-72
2022/01/10 08:37:17;;;;;;;14.73;7.18;;;5.50;91.90;;;;;;5021162;28;20029;-69
2022/01/10 08:39:49;;;;;;;14.52;7.18;;;5.50;91.90;;;;;;5018010;28;20018;-72
2022/01/10 08:42:21;;;;;;;14.68;6.25;;;5.50;92.00;;;;;;5026442;28;20049;-71
2022/01/10 08:44:47;;;;;;;14.32;6.50;;;5.50;91.90;;;;;;5043838;28;20029;-71
2022/01/10 08:47:13;;;;;;;20.17;7.85;;;5.40;91.90;;;;;;5045706;28;20038;-71
2022/01/10 08:49:39;;;;;;;22.02;8.20;;;5.50;92.00;;;;;;5044470;28;20045;-72
2022/01/10 08:52:05;;;;;;;19.95;9.00;;;5.50;92.00;;;;;;5032238;28;20091;-71
2022/01/10 08:54:34;;;;;;;15.27;8.68;;;5.50;92.00;;;;;;5027772;28;20112;-71
2022/01/10 08:57:00;;;;;;;20.10;7.20;;;5.60;92.00;;;;;;5033927;28;20041;-71
2022/01/10 08:59:28;;;;;;;15.77;7.47;;;5.60;92.00;;;;;;5047710;28;20033;-71
2022/01/10 09:01:55;;;;;;;15.85;7.82;;;5.60;92.00;;;;;;5043566;28;20076;-71
2022/01/10 09:04:20;;;;;;;22.13;8.05;;;5.60;92.00;;;;;;5050948;28;20044;-71
2022/01/10 09:06:50;;;;;;;23.00;7.68;;;5.60;92.00;;;;;;5031466;28;20113;-71
2022/01/10 09:09:16;;;;;;;24.10;8.35;;;5.60;91.90;;;;;;5045999;28;20069;-71
2022/01/10 09:11:45;;;;;;;18.75;7.68;;;5.60;91.90;;;;;;5033416;28;20026;-71
2022/01/10 09:14:13;;;;;;;15.98;6.88;;;5.60;91.90;;;;;;5014052;28;20034;-71
2022/01/10 09:16:40;;;;;;;17.48;7.47;;;5.60;92.10;;;;;;5013745;28;20030;-70
2022/01/10 09:19:05;;;;;;;21.17;7.00;;;5.60;91.80;;;;;;5026347;28;20025;-72
2022/01/10 09:21:32;;;;;;;11.07;6.05;;;5.60;91.80;;;;;;5034724;28;20377;-73
2022/01/10 09:24:00;;;;;;;13.82;6.80;;;5.60;91.70;;;;;;5028942;28;20066;-73
2022/01/10 09:26:27;;;;;;;18.25;8.40;;;5.50;91.70;;;;;;5026304;28;20456;-68
2022/01/10 09:28:55;;;;;;;13.55;6.30;;;5.50;91.70;;;;;;5028457;28;20030;-71
2022/01/10 09:31:24;;;;;;;17.98;5.82;;;5.50;91.80;;;;;;5013892;28;20048;-68
2022/01/10 09:33:55;;;;;;;18.40;6.55;;;5.50;91.70;;;;;;5012967;28;20042;-71
2022/01/10 09:36:26;;;;;;;15.68;7.65;;;5.50;91.70;;;;;;5031987;28;20028;-72
2022/01/10 09:38:52;;;;;;;17.38;7.80;;;5.50;91.70;;;;;;5053375;28;20083;-71
2022/01/10 09:41:18;;;;;;;13.00;6.55;;;5.40;91.70;;;;;;5052759;28;20487;-72
2022/01/10 09:43:52;;;;;;;17.67;7.47;;;5.40;91.70;;;;;;5053394;28;20032;-71
2022/01/10 09:46:18;;;;;;;22.35;8.85;;;5.40;91.80;;;;;;5050934;28;20058;-73
2022/01/10 09:48:45;;;;;;;20.92;8.57;;;5.40;91.80;;;;;;5051590;28;20033;-72
2022/01/10 09:51:10;;;;;;;18.83;6.20;;;5.40;91.90;;;;;;5041226;28;20040;-72
2022/01/10 09:53:36;;;;;;;23.60;9.38;;;5.40;91.90;;;;;;5049847;28;20045;-72
2022/01/10 09:56:03;;;;;;;13.60;7.20;;;5.40;91.90;;;;;;5044753;28;20104;-70
2022/01/10 09:58:28;;;;;;;23.23;8.43;;;5.50;91.90;;;;;;5048166;28;20112;-70
2022/01/10 10:00:59;;;;;;;23.92;8.32;;;5.50;91.90;;;;;;5034356;28;20149;-70
2022/01/10 10:03:25;;;;;;;21.23;9.80;;;5.50;91.90;;;;;;5045698;28;20485;-69
2022/01/10 10:05:52;;;;;;;28.17;10.68;;;5.60;92.00;;;;;;5051372;28;20133;-70
2022/01/10 10:08:21;;;;;;;19.90;8.18;;;5.60;92.10;;;;;;5038890;28;20036;-69
2022/01/10 10:10:48;;;;;;;29.48;9.77;;;5.70;92.10;;;;;;5052691;28;20029;-70
2022/01/10 10:13:17;;;;;;;22.73;10.77;;;5.80;92.10;;;;;;5042799;28;20049;-70
2022/01/10 10:15:45;;;;;;;25.80;9.60;;;5.80;92.10;;;;;;5024407;28;20036;-70
2022/01/10 10:18:12;;;;;;;19.27;9.63;;;5.80;92.10;;;;;;5026474;28;20042;-70
2022/01/10 10:20:41;;;;;;;20.00;8.90;;;5.90;92.10;;;;;;5013267;28;20453;-69
2022/01/10 10:23:11;;;;;;;22.15;11.00;;;5.90;92.10;;;;;;5028127;28;20040;-70
2022/01/10 10:25:37;;;;;;;24.05;10.25;;;6.00;92.10;;;;;;5045166;28;20071;-70
2022/01/10 10:28:03;;;;;;;22.02;10.15;;;6.00;92.10;;;;;;5043643;28;20487;-70
2022/01/10 10:30:30;;;;;;;20.45;9.73;;;6.00;92.10;;;;;;5031789;28;20033;-69
2022/01/10 10:33:17;;;;;;;23.05;10.70;;;6.00;92.00;;;;;;5039263;28;20045;-70
2022/01/10 10:36:03;;;;;;;19.45;9.57;;;6.10;92.10;;;;;;5034683;28;20045;-70
2022/01/10 10:38:29;;;;;;;25.08;11.30;;;6.10;92.10;;;;;;5030894;28;20041;-71
2022/01/10 10:41:00;;;;;;;23.75;10.48;;;6.10;92.10;;;;;;5022957;28;20029;-71
2022/01/10 10:43:26;;;;;;;23.48;10.52;;;6.20;92.10;;;;;;5021861;28;20034;-71
2022/01/10 10:45:51;;;;;;;24.42;10.65;;;6.20;92.10;;;;;;5012009;28;20026;-70
2022/01/10 10:48:20;;;;;;;28.33;12.15;;;6.30;92.10;;;;;;5019948;28;20029;-70
2022/01/10 10:50:47;;;;;;;30.23;11.50;;;6.40;92.10;;;;;;5017322;28;20567;-69
2022/01/10 10:53:14;;;;;;;23.35;12.10;;;6.40;92.10;;;;;;5011683;28;20064;-71
2022/01/10 10:55:46;;;;;;;29.77;12.65;;;6.50;92.20;;;;;;5011971;28;20034;-70
2022/01/10 10:58:13;;;;;;;39.20;13.38;;;6.50;92.20;;;;;;5014250;28;20034;-70
2022/01/10 11:00:39;;;;;;;26.50;12.45;;;6.60;92.30;;;;;;5014973;28;20041;-71
2022/01/10 11:03:12;;;;;;;31.95;11.15;;;6.60;92.30;;;;;;5039975;28;20029;-71
2022/01/10 11:05:38;;;;;;;24.52;12.55;;;6.60;92.40;;;;;;5043800;28;20044;-71
2022/01/10 11:08:05;;;;;;;30.10;11.93;;;6.70;92.40;;;;;;5035062;28;20033;-71
2022/01/10 11:10:31;;;;;;;28.48;11.45;;;6.70;92.40;;;;;;5014903;28;20034;-71
2022/01/10 11:12:59;;;;;;;25.00;11.00;;;6.80;92.50;;;;;;5021140;28;20038;-72
2022/01/10 11:15:25;;;;;;;30.33;12.02;;;6.80;92.50;;;;;;5015618;28;20068;-72
2022/01/10 11:18:00;;;;;;;26.88;12.35;;;6.80;92.40;;;;;;5027016;28;20080;-72
2022/01/10 11:20:26;;;;;;;24.13;10.38;;;6.90;92.50;;;;;;5047842;28;20440;-72
2022/01/10 11:22:57;;;;;;;23.42;12.93;;;7.00;92.50;;;;;;5041868;28;20082;-71
2022/01/10 11:25:27;;;;;;;25.52;11.52;;;7.00;92.50;;;;;;5025367;28;20030;-71
2022/01/10 11:27:57;;;;;;;29.77;12.07;;;7.00;92.50;;;;;;5024665;28;20071;-69
2022/01/10 11:30:40;;;;;;;26.25;12.20;;;7.10;92.50;;;;;;5051812;28;20040;-69
2022/01/10 11:33:09;;;;;;;26.42;12.40;;;7.10;92.60;;;;;;5033414;28;20107;-70
2022/01/10 11:35:41;;;;;;;26.70;12.27;;;7.10;92.50;;;;;;5023170;28;20112;-71
2022/01/10 11:38:29;;;;;;;32.35;13.48;;;7.20;92.60;;;;;;5041612;28;20102;-70
2022/01/10 11:41:13;;;;;;;27.98;5.93;;;7.20;92.70;;;;;;5029174;28;20719;-70
2022/01/10 11:44:10;;;;;;;24.98;11.77;;;7.20;92.50;;;;;;5055781;28;20033;-69
2022/01/10 11:46:47;;;;;;;23.95;10.15;;;7.30;92.60;;;;;;5033977;28;20513;-69
2022/01/10 11:49:13;;;;;;;16.10;7.90;;;7.30;92.50;;;;;;5040900;28;20088;-70
2022/01/10 11:52:01;;;;;;;23.02;10.77;;;7.30;92.50;;;;;;5055343;28;20029;-70
2022/01/10 11:54:38;;;;;;;26.13;10.52;;;7.40;92.40;;;;;;5039660;28;20057;-70
2022/01/10 11:57:09;;;;;;;31.90;11.25;;;7.40;92.40;;;;;;5015305;28;20036;-71
2022/01/10 11:59:43;;;;;;;25.75;10.60;;;7.40;92.30;;;;;;5025968;28;20045;-71
2022/01/10 12:02:19;;;;;;;;;;;7.40;92.50;;;;;;5047053;28;20030;-70
2022/01/10 12:04:53;;;;;;;23.10;9.95;;;7.50;92.40;;;;;;5015694;28;19913;-70
2022/01/10 12:07:22;;;;;;;16.63;7.60;;;7.50;92.30;;;;;;5045410;28;20496;-70
2022/01/10 12:09:48;;;;;;;18.77;8.20;;;7.50;92.30;;;;;;5014544;28;20133;-69
2022/01/10 12:12:16;;;;;;;21.58;8.65;;;7.50;92.30;;;;;;5015022;28;20378;-79
2022/01/10 12:14:42;;;;;;;20.73;8.88;;;7.50;92.20;;;;;;5026820;28;20460;-70
2022/01/10 12:17:09;;;;;;;18.52;8.73;;;7.50;92.20;;;;;;5044652;28;20113;-71
2022/01/10 12:19:35;;;;;;;21.45;9.48;;;7.50;92.20;;;;;;5017622;28;20034;-70
2022/01/10 12:22:05;;;;;;;12.10;5.55;;;7.50;92.30;;;;;;5029555;28;20076;-70
2022/01/10 12:24:31;;;;;;;14.15;6.82;;;7.50;92.30;;;;;;5042762;28;20025;-70
2022/01/10 12:26:57;;;;;;;22.08;9.07;;;7.50;92.30;;;;;;5027534;28;20029;-71
2022/01/10 12:29:28;;;;;;;20.55;9.90;;;7.60;92.30;;;;;;5053202;28;20443;-70
2022/01/10 12:31:54;;;;;;;21.58;9.90;;;7.60;92.40;;;;;;5028319;28;20018;-71
2022/01/10 12:34:23;;;;;;;21.13;10.23;;;7.60;92.50;;;;;;5014797;28;20034;-70
2022/01/10 12:36:48;;;;;;;8.05;4.75;;;7.70;92.50;;;;;;5023056;28;20030;-70
2022/01/10 12:39:21;;;;;;;19.48;7.63;;;7.70;92.50;;;;;;5031833;28;20041;-70
2022/01/10 12:41:51;;;;;;;25.63;9.82;;;7.80;92.50;;;;;;5034385;28;20377;-71
2022/01/10 12:44:20;;;;;;;25.15;9.57;;;7.80;92.50;;;;;;5014693;28;20029;-69
2022/01/10 12:46:49;;;;;;;24.27;7.97;;;7.80;92.50;;;;;;5013856;28;20117;-69
2022/01/10 12:49:16;;;;;;;21.35;8.68;;;7.90;92.60;;;;;;5013168;28;20050;-69
2022/01/10 12:51:43;;;;;;;16.27;8.07;;;7.90;92.70;;;;;;5016390;28;20022;-69
2022/01/10 12:54:15;;;;;;;24.13;9.25;;;7.90;92.70;;;;;;5016524;28;20042;-70
2022/01/10 12:56:42;;;;;;;33.25;12.30;;;7.90;92.80;;;;;;5013373;28;20117;-70
2022/01/10 12:59:10;;;;;;;24.02;8.40;;;8.00;92.80;;;;;;5050525;28;20377;-69
2022/01/10 13:01:36;;;;;;;20.02;9.07;;;8.10;92.80;;;;;;5054043;28;20108;-70
2022/01/10 13:04:02;;;;;;;20.15;5.68;;;8.20;92.90;;;;;;5053227;28;20114;-70
2022/01/10 13:06:37;;;;;;;21.17;10.18;;;8.20;92.90;;;;;;5053875;28;20576;-70
2022/01/10 13:09:04;;;;;;;26.60;10.80;;;8.30;92.90;;;;;;5051737;28;20029;-70